TimeCDT,TemperatureF,Dew PointF,Humidity,Sea Level PressureIn,VisibilityMPH,Wind Direction,Wind SpeedMPH,Gust SpeedMPH,PrecipitationIn,Events,Conditions,WindDirDegrees,DateUTC
12:15 AM,55.4,46.4,72,29.95,10.0,West,3.5,-,N/A,,Overcast,260,2013-04-29 05:15:00
12:35 AM,55.4,44.6,67,29.95,10.0,WSW,3.5,-,N/A,,Overcast,240,2013-04-29 05:35:00
12:55 AM,55.4,44.6,67,29.95,10.0,Calm,Calm,-,N/A,,Overcast,0,2013-04-29 05:55:00
1:15 AM,53.6,44.6,72,29.95,10.0,Calm,Calm,-,N/A,,Mostly Cloudy,0,2013-04-29 06:15:00
1:35 AM,51.8,42.8,71,29.94,8.0,South,4.6,-,N/A,,Clear,190,2013-04-29 06:35:00
1:55 AM,51.8,42.8,71,29.95,5.0,SW,3.5,-,N/A,,Partly Cloudy,230,2013-04-29 06:55:00
2:15 AM,51.8,42.8,71,29.95,4.0,SSW,3.5,-,N/A,,Scattered Clouds,210,2013-04-29 07:15:00
2:35 AM,51.8,42.8,71,29.95,7.0,SSW,4.6,-,N/A,,Partly Cloudy,210,2013-04-29 07:35:00
2:55 AM,51.8,41.0,67,29.95,5.0,SSW,3.5,-,N/A,,Mostly Cloudy,210,2013-04-29 07:55:00
3:15 AM,51.8,42.8,71,29.95,5.0,Calm,Calm,-,N/A,,Overcast,0,2013-04-29 08:15:00
3:35 AM,51.8,42.8,71,29.95,7.0,Calm,Calm,-,N/A,,Overcast,0,2013-04-29 08:35:00
3:55 AM,51.8,42.8,71,29.95,7.0,Calm,Calm,-,N/A,,Overcast,0,2013-04-29 08:55:00
4:15 AM,51.8,42.8,71,29.96,7.0,SSW,3.5,-,N/A,,Overcast,210,2013-04-29 09:15:00
4:35 AM,53.6,44.6,72,29.96,7.0,SSW,3.5,-,N/A,,Overcast,210,2013-04-29 09:35:00
4:55 AM,53.6,44.6,72,29.97,8.0,Calm,Calm,-,N/A,,Overcast,0,2013-04-29 09:55:00
5:15 AM,53.6,44.6,72,29.97,9.0,Calm,Calm,-,N/A,,Overcast,0,2013-04-29 10:15:00
5:35 AM,53.6,44.6,72,29.98,8.0,Calm,Calm,-,N/A,,Overcast,0,2013-04-29 10:35:00
5:55 AM,53.6,44.6,72,29.98,8.0,SW,3.5,-,N/A,,Overcast,220,2013-04-29 10:55:00
6:15 AM,53.6,44.6,72,29.98,8.0,South,4.6,-,N/A,,Overcast,190,2013-04-29 11:15:00
6:35 AM,53.6,44.6,72,29.99,8.0,South,5.8,-,N/A,,Overcast,180,2013-04-29 11:35:00
6:55 AM,53.6,44.6,72,29.99,8.0,SSW,5.8,-,N/A,,Overcast,200,2013-04-29 11:55:00
7:15 AM,55.4,46.4,72,30.00,8.0,SSW,6.9,-,N/A,,Overcast,210,2013-04-29 12:15:00
7:35 AM,55.4,46.4,72,30.01,9.0,SSW,6.9,-,N/A,,Overcast,210,2013-04-29 12:35:00
7:55 AM,55.4,46.4,72,30.01,10.0,SSW,4.6,-,N/A,,Overcast,210,2013-04-29 12:55:00
8:15 AM,57.2,46.4,67,30.01,10.0,SSW,6.9,-,N/A,,Overcast,210,2013-04-29 13:15:00
8:35 AM,59.0,48.2,67,30.01,10.0,SW,6.9,-,N/A,,Scattered Clouds,220,2013-04-29 13:35:00
8:55 AM,60.8,48.2,63,30.01,10.0,SW,6.9,-,N/A,,Clear,220,2013-04-29 13:55:00
9:15 AM,62.6,48.2,59,30.01,10.0,SW,9.2,-,N/A,,Clear,220,2013-04-29 14:15:00
9:35 AM,62.6,48.2,59,30.01,10.0,SSW,9.2,-,N/A,,Clear,200,2013-04-29 14:35:00
9:55 AM,64.4,48.2,56,30.00,10.0,SW,8.1,-,N/A,,Clear,220,2013-04-29 14:55:00
10:15 AM,64.4,46.4,52,30.01,10.0,SSW,5.8,-,N/A,,Mostly Cloudy,210,2013-04-29 15:15:00
10:35 AM,64.4,46.4,52,30.00,10.0,South,5.8,-,N/A,,Overcast,190,2013-04-29 15:35:00
10:55 AM,64.4,46.4,52,30.01,10.0,SW,6.9,-,N/A,,Overcast,220,2013-04-29 15:55:00
11:15 AM,66.2,48.2,52,30.00,10.0,SSW,8.1,-,N/A,,Mostly Cloudy,210,2013-04-29 16:15:00
11:35 AM,66.2,46.4,49,30.00,10.0,South,9.2,-,N/A,,Partly Cloudy,180,2013-04-29 16:35:00
11:55 AM,66.2,46.4,49,29.99,10.0,SSW,8.1,-,N/A,,Mostly Cloudy,210,2013-04-29 16:55:00
12:15 PM,68.0,48.2,49,29.99,10.0,South,9.2,-,N/A,,Mostly Cloudy,190,2013-04-29 17:15:00
12:35 PM,69.8,48.2,46,29.98,10.0,South,10.4,-,N/A,,Mostly Cloudy,180,2013-04-29 17:35:00
12:55 PM,69.8,48.2,46,29.97,10.0,SSE,5.8,-,N/A,,Partly Cloudy,160,2013-04-29 17:55:00
1:15 PM,69.8,48.2,46,29.97,10.0,SW,8.1,-,N/A,,Scattered Clouds,220,2013-04-29 18:15:00
1:35 PM,69.8,48.2,46,29.96,10.0,South,9.2,-,N/A,,Mostly Cloudy,190,2013-04-29 18:35:00
1:55 PM,71.6,48.2,43,29.96,10.0,South,8.1,-,N/A,,Partly Cloudy,170,2013-04-29 18:55:00
2:15 PM,71.6,48.2,43,29.95,10.0,SSW,8.1,-,N/A,,Clear,200,2013-04-29 19:15:00
2:35 PM,71.6,48.2,43,29.94,10.0,South,9.2,-,N/A,,Clear,180,2013-04-29 19:35:00
2:55 PM,71.6,48.2,43,29.94,10.0,SSW,10.4,-,N/A,,Clear,200,2013-04-29 19:55:00
3:15 PM,71.6,48.2,43,29.93,10.0,South,6.9,-,N/A,,Clear,180,2013-04-29 20:15:00
3:35 PM,73.4,48.2,41,29.92,10.0,South,9.2,-,N/A,,Clear,180,2013-04-29 20:35:00
3:55 PM,73.4,48.2,41,29.91,10.0,South,8.1,-,N/A,,Clear,190,2013-04-29 20:55:00
4:15 PM,73.4,48.2,41,29.91,10.0,SSW,4.6,-,N/A,,Clear,200,2013-04-29 21:15:00
4:35 PM,73.4,48.2,41,29.91,10.0,SSW,9.2,-,N/A,,Clear,200,2013-04-29 21:35:00
4:55 PM,73.4,48.2,41,29.90,10.0,South,8.1,-,N/A,,Clear,190,2013-04-29 21:55:00
5:15 PM,73.4,48.2,41,29.90,10.0,SSW,6.9,-,N/A,,Clear,210,2013-04-29 22:15:00
5:35 PM,73.4,48.2,41,29.90,10.0,South,6.9,-,N/A,,Clear,170,2013-04-29 22:35:00
5:55 PM,73.4,48.2,41,29.89,10.0,South,8.1,-,N/A,,Clear,190,2013-04-29 22:55:00
6:15 PM,73.4,48.2,41,29.89,10.0,South,8.1,-,N/A,,Clear,190,2013-04-29 23:15:00
6:35 PM,71.6,48.2,43,29.89,10.0,South,4.6,-,N/A,,Clear,170,2013-04-29 23:35:00
6:55 PM,71.6,48.2,43,29.89,10.0,South,5.8,-,N/A,,Clear,180,2013-04-29 23:55:00
7:15 PM,69.8,48.2,46,29.89,10.0,South,4.6,-,N/A,,Clear,170,2013-04-30 00:15:00
7:35 PM,66.2,48.2,52,29.89,10.0,SSE,4.6,-,N/A,,Clear,160,2013-04-30 00:35:00
7:55 PM,66.2,46.4,49,29.90,10.0,SE,4.6,-,N/A,,Clear,140,2013-04-30 00:55:00
8:15 PM,62.6,46.4,55,29.90,10.0,SSE,4.6,-,N/A,,Clear,150,2013-04-30 01:15:00
8:35 PM,64.4,46.4,52,29.90,10.0,SE,4.6,-,N/A,,Clear,130,2013-04-30 01:35:00
8:55 PM,64.4,46.4,52,29.91,10.0,SE,5.8,-,N/A,,Clear,130,2013-04-30 01:55:00
9:15 PM,64.4,46.4,52,29.91,10.0,SE,5.8,-,N/A,,Clear,130,2013-04-30 02:15:00
9:35 PM,64.4,46.4,52,29.91,10.0,SE,6.9,-,N/A,,Clear,140,2013-04-30 02:35:00
9:55 PM,62.6,46.4,55,29.91,10.0,SE,5.8,-,N/A,,Clear,140,2013-04-30 02:55:00
10:55 PM,59.0,46.4,63,29.92,10.0,SSE,6.9,-,N/A,,Clear,160,2013-04-30 03:55:00
11:15 PM,59.0,46.4,63,29.92,10.0,SSE,6.9,-,N/A,,Clear,150,2013-04-30 04:15:00
11:35 PM,59.0,44.6,59,29.92,10.0,SSE,5.8,-,N/A,,Clear,150,2013-04-30 04:35:00
11:55 PM,57.2,44.6,63,29.93,10.0,SSE,4.6,-,N/A,,Clear,150,2013-04-30 04:55:00